Time;durP1;ratioP1;P1;durP2;ratioP2;P2;SDS_P1;SDS_P2;PMS_P1;PMS_P2;Temp;Humidity;BMP_temperature;BMP_pressure;BME280_temperature;BME280_humidity;BME280_pressure;Samples;Min_cycle;Max_cycle;Signal;HPM_P1;HPM_P2
2021/06/15 00:00:13;;;;;;;;;;;;;;;15.56;100.00;100071.84;5095746;28;19919;-71
2021/06/15 00:02:39;;;;;;;;;;;;;;;15.52;100.00;100062.56;5096074;28;20405;-71
2021/06/15 00:05:05;;;;;;;;;;;;;;;15.51;100.00;100064.38;5095537;28;19912;-71
2021/06/15 00:07:30;;;;;;;;;;;;;;;15.52;100.00;100063.41;5094775;28;19912;-71
2021/06/15 00:09:56;;;;;;;;;;;;;;;15.52;100.00;100065.22;5095611;28;19998;-71
2021/06/15 00:12:21;;;;;;;;;;;;;;;15.50;100.00;100067.22;5095986;28;19916;-71
2021/06/15 00:14:46;;;;;;;;;;;;;;;15.49;100.00;100060.25;5095579;28;19912;-71
2021/06/15 00:17:12;;;;;;;;;;;;;;;15.47;100.00;100054.31;5095629;28;20426;-71
2021/06/15 00:19:37;;;;;;;;;;;;;;;15.45;100.00;100049.19;5095595;28;19912;-71
2021/06/15 00:22:03;;;;;;;;;;;;;;;15.34;100.00;100050.31;5095372;28;19916;-71
2021/06/15 00:24:28;;;;;;;;;;;;;;;15.37;100.00;100053.66;5077294;28;19912;-71
2021/06/15 00:26:54;;;;;;;;;;;;;;;15.37;100.00;100043.91;5095101;28;20006;-71
2021/06/15 00:29:19;;;;;;;;;;;;;;;15.49;100.00;100047.91;5095124;28;19912;-71
2021/06/15 00:31:44;;;;;;;;;;;;;;;15.44;100.00;100052.81;5077518;28;19908;-71
2021/06/15 00:34:09;;;;;;;;;;;;;;;15.51;100.00;100042.44;5095217;28;19911;-71
2021/06/15 00:36:35;;;;;;;;;;;;;;;15.22;100.00;100042.88;5094871;28;20337;-71
2021/06/15 00:39:01;;;;;;;;;;;;;;;14.85;100.00;100044.91;5094943;28;20390;-71
2021/06/15 00:41:26;;;;;;;;;;;;;;;14.87;100.00;100048.19;5094952;28;20275;-71
2021/06/15 00:43:51;;;;;;;;;;;;;;;14.85;100.00;100052.00;5095332;28;19915;-71
2021/06/15 00:46:17;;;;;;;;;;;;;;;14.78;100.00;100051.81;5094909;28;19919;-71
2021/06/15 00:48:42;;;;;;;;;;;;;;;14.70;100.00;100054.38;5094762;28;19919;-71
2021/06/15 00:51:08;;;;;;;;;;;;;;;14.64;100.00;100060.28;5076644;28;19954;-71
2021/06/15 00:53:35;;;;;;;;;;;;;;;14.50;100.00;100060.84;5094821;28;19947;-71
2021/06/15 00:56:00;;;;;;;;;;;;;;;14.51;100.00;100063.38;5094642;28;19912;-71
2021/06/15 00:58:25;;;;;;;;;;;;;;;14.43;100.00;100065.09;5076469;28;19918;-71
2021/06/15 01:00:51;;;;;;;;;;;;;;;14.44;100.00;100067.53;5076518;28;19945;-71
2021/06/15 01:03:17;;;;;;;;;;;;;;;14.46;100.00;100062.13;5094617;28;19919;-71
2021/06/15 01:05:43;;;;;;;;;;;;;;;14.52;100.00;100061.56;5094517;28;20014;-71
2021/06/15 01:08:13;;;;;;;;;;;;;;;14.56;100.00;100062.88;5094562;28;19919;-71
2021/06/15 01:10:45;;;;;;;;;;;;;;;14.50;100.00;100059.06;5080585;28;19915;-71
2021/06/15 01:13:16;;;;;;;;;;;;;;;14.42;100.00;100058.97;5114655;28;19965;-71
2021/06/15 01:15:51;;;;;;;;;;;;;;;14.34;100.00;100059.75;5114183;28;20499;-71
2021/06/15 01:18:22;;;;;;;;;;;;;;;14.23;100.00;100056.53;5096260;28;19919;-71
2021/06/15 01:20:52;;;;;;;;;;;;;;;14.21;100.00;100066.41;5114699;28;19911;-71
2021/06/15 01:23:32;;;;;;;;;;;;;;;14.11;100.00;100061.25;5114338;28;19911;-71
2021/06/15 01:26:04;;;;;;;;;;;;;;;14.14;100.00;100063.56;5113866;28;20002;-71
2021/06/15 01:28:35;;;;;;;;;;;;;;;14.15;100.00;100054.69;5114444;28;19919;-70
2021/06/15 01:31:12;;;;;;;;;;;;;;;14.11;100.00;100058.63;5113320;28;19922;-71
2021/06/15 01:33:43;;;;;;;;;;;;;;;14.11;100.00;100066.53;5113687;28;19912;-71
2021/06/15 01:36:10;;;;;;;;;;;;;;;14.18;100.00;100064.91;5111540;28;20479;-71
2021/06/15 01:38:39;;;;;;;;;;;;;;;14.25;100.00;100068.59;5113676;28;19946;-71
2021/06/15 01:41:09;;;;;;;;;;;;;;;14.27;100.00;100066.63;5113467;28;19911;-71
2021/06/15 01:43:36;;;;;;;;;;;;;;;14.31;100.00;100067.97;5113327;28;19934;-71
2021/06/15 01:46:04;;;;;;;;;;;;;;;14.44;100.00;100064.09;5113562;28;19912;-71
2021/06/15 01:48:32;;;;;;;;;;;;;;;14.60;100.00;100065.03;5113750;28;19911;-71
2021/06/15 01:50:58;;;;;;;;;;;;;;;14.63;100.00;100058.63;5113588;28;20006;-72
2021/06/15 01:53:24;;;;;;;;;;;;;;;14.72;100.00;100062.97;5113605;28;19970;-71
2021/06/15 01:55:52;;;;;;;;;;;;;;;14.76;100.00;100061.66;5113555;28;20402;-71
2021/06/15 01:58:17;;;;;;;;;;;;;;;14.87;100.00;100063.19;5113941;28;19911;-71
2021/06/15 02:00:44;;;;;;;;;;;;;;;14.91;100.00;100074.25;5113590;28;19984;-71
2021/06/15 02:03:10;;;;;;;;;;;;;;;15.01;100.00;100069.69;5113611;28;20385;-71
2021/06/15 02:05:39;;;;;;;;;;;;;;;15.07;100.00;100066.41;5113706;28;19912;-71
2021/06/15 02:08:07;;;;;;;;;;;;;;;15.18;100.00;100062.66;5113770;28;20298;-71
2021/06/15 02:10:34;;;;;;;;;;;;;;;15.12;100.00;100064.13;5113627;28;19934;-71
2021/06/15 02:13:00;;;;;;;;;;;;;;;15.10;100.00;100060.81;5113467;28;20434;-71
2021/06/15 02:15:27;;;;;;;;;;;;;;;15.18;100.00;100071.41;5113934;28;19998;-71
2021/06/15 02:17:53;;;;;;;;;;;;;;;15.08;100.00;100070.69;5113998;28;19911;-72
2021/06/15 02:20:21;;;;;;;;;;;;;;;14.93;100.00;100064.38;5095491;28;20412;-72
2021/06/15 02:22:47;;;;;;;;;;;;;;;14.85;100.00;100073.94;5113347;28;20362;-72
2021/06/15 02:25:13;;;;;;;;;;;;;;;14.77;100.00;100075.69;5095246;28;19918;-72
2021/06/15 02:27:39;;;;;;;;;;;;;;;14.75;100.00;100073.22;5113440;28;19919;-72
2021/06/15 02:30:05;;;;;;;;;;;;;;;14.74;100.00;100076.81;5112921;28;20286;-72
2021/06/15 02:32:32;;;;;;;;;;;;;;;14.79;100.00;100082.47;5113542;28;20002;-72
2021/06/15 02:34:59;;;;;;;;;;;;;;;14.72;100.00;100076.16;5113463;28;19912;-72
2021/06/15 02:37:30;;;;;;;;;;;;;;;14.86;100.00;100080.03;5113364;28;20378;-72
2021/06/15 02:39:57;;;;;;;;;;;;;;;14.87;100.00;100092.22;5113698;28;20328;-72
2021/06/15 02:42:22;;;;;;;;;;;;;;;14.82;100.00;100091.88;5113540;28;19912;-72
2021/06/15 02:44:49;;;;;;;;;;;;;;;14.82;100.00;100081.34;5113203;28;19968;-72
2021/06/15 02:47:14;;;;;;;;;;;;;;;14.87;100.00;100087.75;5113342;28;20004;-72
2021/06/15 02:49:50;;;;;;;;;;;;;;;14.78;100.00;100088.72;5113337;28;19912;-72
2021/06/15 02:52:18;;;;;;;;;;;;;;;14.76;100.00;100087.22;5113283;28;19911;-72
2021/06/15 02:54:46;;;;;;;;;;;;;;;14.69;100.00;100087.03;5113100;28;19915;-71
2021/06/15 02:57:12;;;;;;;;;;;;;;;14.79;100.00;100095.66;5112893;28;19912;-72
2021/06/15 02:59:38;;;;;;;;;;;;;;;14.87;100.00;100098.31;5113156;28;19912;-72
2021/06/15 03:02:03;;;;;;;;;;;;;;;14.90;100.00;100093.72;5111807;28;19919;-72
2021/06/15 03:04:28;;;;;;;;;;;;;;;14.96;100.00;100093.09;5111618;28;20307;-71
2021/06/15 03:06:54;;;;;;;;;;;;;;;14.96;100.00;100086.00;5111686;28;19954;-72
2021/06/15 03:09:19;;;;;;;;;;;;;;;14.93;100.00;100081.03;5111969;28;19912;-72
2021/06/15 03:11:48;;;;;;;;;;;;;;;15.01;100.00;100090.78;5112478;28;20442;-72
2021/06/15 03:14:18;;;;;;;;;;;;;;;15.06;100.00;100091.16;5112593;28;19915;-72
2021/06/15 03:16:44;;;;;;;;;;;;;;;14.98;100.00;100096.38;5112517;28;20006;-72
2021/06/15 03:19:16;;;;;;;;;;;;;;;15.03;100.00;100091.47;5112748;28;19953;-72
2021/06/15 03:21:47;;;;;;;;;;;;;;;15.00;100.00;100099.72;5112911;28;19918;-71
2021/06/15 03:24:16;;;;;;;;;;;;;;;14.86;100.00;100095.84;5112746;28;20297;-72
2021/06/15 03:27:00;;;;;;;;;;;;;;;14.96;100.00;100093.09;5113113;28;20377;-72
2021/06/15 03:29:28;;;;;;;;;;;;;;;15.04;100.00;100085.22;5112840;28;19919;-72
2021/06/15 03:31:59;;;;;;;;;;;;;;;15.07;100.00;100098.09;5113203;28;20007;-72
2021/06/15 03:34:26;;;;;;;;;;;;;;;15.06;100.00;100099.09;5112763;28;19912;-72
2021/06/15 03:36:52;;;;;;;;;;;;;;;15.13;100.00;100099.28;5095078;28;20314;-74
2021/06/15 03:39:18;;;;;;;;;;;;;;;15.09;100.00;100102.22;5112433;28;19916;-72
2021/06/15 03:41:44;;;;;;;;;;;;;;;15.13;100.00;100110.66;5112973;28;19922;-72
2021/06/15 03:44:09;;;;;;;;;;;;;;;15.17;100.00;100114.63;5098518;28;19912;-72
2021/06/15 03:46:36;;;;;;;;;;;;;;;15.16;100.00;100115.63;5116392;28;20374;-72
2021/06/15 03:49:03;;;;;;;;;;;;;;;15.20;100.00;100111.66;5116440;28;19923;-72
2021/06/15 03:51:31;;;;;;;;;;;;;;;15.18;100.00;100116.28;5116436;28;19954;-72
2021/06/15 03:54:08;;;;;;;;;;;;;;;15.26;100.00;100112.84;5098055;28;20361;-72
2021/06/15 03:56:41;;;;;;;;;;;;;;;15.27;100.00;100120.59;5116420;28;19916;-72
2021/06/15 03:59:08;;;;;;;;;;;;;;;15.22;100.00;100114.13;5116256;28;19912;-71
2021/06/15 04:01:35;;;;;;;;;;;;;;;15.29;100.00;100125.75;5097778;28;20006;-72
2021/06/15 04:04:02;;;;;;;;;;;;;;;15.32;100.00;100123.59;5116081;28;19961;-72
2021/06/15 04:06:27;;;;;;;;;;;;;;;15.36;100.00;100121.47;5116361;28;19918;-72
2021/06/15 04:08:54;;;;;;;;;;;;;;;15.34;100.00;100124.25;5116205;28;19912;-72
2021/06/15 04:11:20;;;;;;;;;;;;;;;15.27;100.00;100122.41;5115959;28;20022;-72
2021/06/15 04:13:46;;;;;;;;;;;;;;;15.24;100.00;100122.72;5115897;28;20390;-72
2021/06/15 04:16:12;;;;;;;;;;;;;;;15.15;100.00;100129.78;5115594;28;19912;-72
2021/06/15 04:18:40;;;;;;;;;;;;;;;15.15;100.00;100139.50;5097620;28;20363;-72
2021/06/15 04:21:06;;;;;;;;;;;;;;;15.13;100.00;100133.59;5115827;28;19935;-72
2021/06/15 04:23:41;;;;;;;;;;;;;;;15.00;100.00;100123.47;5115894;28;20379;-72
2021/06/15 04:26:07;;;;;;;;;;;;;;;14.97;100.00;100132.50;5115562;28;20010;-72
2021/06/15 04:28:32;;;;;;;;;;;;;;;15.10;100.00;100129.44;5114286;28;19942;-72
2021/06/15 04:30:59;;;;;;;;;;;;;;;15.21;100.00;100139.72;5105088;28;20370;-72
2021/06/15 04:33:25;;;;;;;;;;;;;;;15.25;100.00;100143.69;5097152;28;19965;-72
2021/06/15 04:35:53;;;;;;;;;;;;;;;15.25;100.00;100148.13;5110490;28;19911;-72
2021/06/15 04:38:22;;;;;;;;;;;;;;;15.28;100.00;100148.66;5113888;28;19923;-72
2021/06/15 04:40:50;;;;;;;;;;;;;;;15.33;100.00;100149.00;5112307;28;19965;-72
2021/06/15 04:43:33;;;;;;;;;;;;;;;15.34;100.00;100142.75;5114462;28;19916;-72
2021/06/15 04:46:17;;;;;;;;;;;;;;;15.38;100.00;100139.78;5115259;28;19915;-72
2021/06/15 04:48:44;;;;;;;;;;;;;;;15.48;100.00;100141.28;5115461;28;19916;-72
2021/06/15 04:51:10;;;;;;;;;;;;;;;15.52;100.00;100144.44;5114711;28;19997;-72
2021/06/15 04:53:37;;;;;;;;;;;;;;;15.48;100.00;100143.13;5095767;28;19915;-71
2021/06/15 04:56:03;;;;;;;;;;;;;;;15.55;100.00;100138.84;5114196;28;19915;-72
2021/06/15 04:58:32;;;;;;;;;;;;;;;15.51;100.00;100148.06;5115020;28;19916;-72
2021/06/15 05:01:00;;;;;;;;;;;;;;;15.52;100.00;100149.72;5114849;28;20294;-72
2021/06/15 05:03:26;;;;;;;;;;;;;;;15.60;100.00;100157.69;5115029;28;19968;-73
2021/06/15 05:05:53;;;;;;;;;;;;;;;15.69;100.00;100164.69;5113705;28;19911;-72
2021/06/15 05:08:22;;;;;;;;;;;;;;;15.71;100.00;100164.50;5112139;28;20059;-73
2021/06/15 05:10:48;;;;;;;;;;;;;;;15.68;100.00;100164.84;5112970;28;19916;-72
2021/06/15 05:13:14;;;;;;;;;;;;;;;15.61;100.00;100175.19;5112302;28;19998;-72
2021/06/15 05:15:42;;;;;;;;;;;;;;;15.64;100.00;100169.59;5113778;28;20286;-73
2021/06/15 05:18:08;;;;;;;;;;;;;;;15.68;100.00;100181.50;5110648;28;19968;-72
2021/06/15 05:20:33;;;;;;;;;;;;;;;15.47;100.00;100173.16;5112813;28;20017;-72
2021/06/15 05:23:02;;;;;;;;;;;;;;;15.34;100.00;100171.78;5112636;28;19912;-72
2021/06/15 05:25:28;;;;;;;;;;;;;;;15.35;100.00;100170.81;5110870;28;19923;-72
2021/06/15 05:27:54;;;;;;;;;;;;;;;15.33;100.00;100166.66;5112407;28;19923;-72
2021/06/15 05:30:19;;;;;;;;;;;;;;;15.32;100.00;100165.84;5092602;28;19956;-72
2021/06/15 05:32:44;;;;;;;;;;;;;;;15.21;100.00;100168.75;5092023;28;20397;-71
2021/06/15 05:35:10;;;;;;;;;;;;;;;15.26;100.00;100166.47;5110920;28;19924;-72
2021/06/15 05:37:35;;;;;;;;;;;;;;;15.13;100.00;100166.09;5111861;28;19916;-72
2021/06/15 05:40:01;;;;;;;;;;;;;;;15.10;100.00;100169.03;5111942;28;19915;-72
2021/06/15 05:42:26;;;;;;;;;;;;;;;15.19;100.00;100176.03;5112160;28;20388;-72
2021/06/15 05:44:52;;;;;;;;;;;;;;;15.24;100.00;100171.06;5096291;28;19967;-73
2021/06/15 05:47:17;;;;;;;;;;;;;;;15.32;100.00;100176.41;5114142;28;20348;-72
2021/06/15 05:49:42;;;;;;;;;;;;;;;15.27;100.00;100183.97;5096447;28;19923;-71
2021/06/15 05:52:10;;;;;;;;;;;;;;;15.41;100.00;100179.06;5093690;28;19915;-71
2021/06/15 05:54:35;;;;;;;;;;;;;;;15.48;100.00;100185.38;5098114;28;19920;-71
2021/06/15 05:57:01;;;;;;;;;;;;;;;15.43;100.00;100187.69;5102430;28;19919;-71
2021/06/15 05:59:26;;;;;;;;;;;;;;;15.45;100.00;100190.97;5096240;28;20731;-71
2021/06/15 06:01:52;;;;;;;;;;;;;;;15.40;100.00;100188.00;5098079;28;19912;-71
2021/06/15 06:04:22;;;;;;;;;;;;;;;15.41;100.00;100189.63;5094499;28;19916;-70
2021/06/15 06:09:33;;;;;;;;;;;;;;;15.46;100.00;100166.25;5095088;28;20018;-72
2021/06/15 06:11:58;;;;;;;;;;;;;;;15.60;100.00;100168.25;5099157;28;19994;-71
2021/06/15 06:14:23;;;;;;;;;;;;;;;15.91;100.00;100165.88;5096035;28;19919;-73
2021/06/15 06:16:49;;;;;;;;;;;;;;;16.05;100.00;100159.94;5102770;28;19922;-68
2021/06/15 06:19:15;;;;;;;;;;;;;;;16.23;100.00;100158.97;5102451;28;19919;-71
2021/06/15 06:21:42;;;;;;;;;;;;;;;16.25;100.00;100157.00;5097474;28;20072;-71
2021/06/15 06:24:08;;;;;;;;;;;;;;;16.33;100.00;100162.28;5103288;28;19947;-72
2021/06/15 06:26:33;;;;;;;;;;;;;;;16.49;100.00;100159.63;5093851;28;19970;-72
2021/06/15 06:28:59;;;;;;;;;;;;;;;16.53;100.00;100155.66;5103683;28;19923;-72
2021/06/15 06:31:24;;;;;;;;;;;;;;;16.65;100.00;100152.69;5089624;28;20039;-72
2021/06/15 06:33:49;;;;;;;;;;;;;;;16.74;100.00;100160.47;5098745;28;19912;-72
2021/06/15 06:36:15;;;;;;;;;;;;;;;16.74;100.00;100163.13;5097993;28;19912;-72
2021/06/15 06:38:41;;;;;;;;;;;;;;;16.82;100.00;100166.75;5090433;28;19927;-71
2021/06/15 06:41:06;;;;;;;;;;;;;;;16.88;100.00;100163.44;5100578;28;19998;-73
2021/06/15 06:43:31;;;;;;;;;;;;;;;16.82;100.00;100158.81;5105134;28;19915;-72
2021/06/15 06:45:57;;;;;;;;;;;;;;;16.87;100.00;100161.75;5104495;28;20029;-72
2021/06/15 06:48:22;;;;;;;;;;;;;;;16.98;100.00;100161.41;5096757;28;19916;-71
2021/06/15 06:50:48;;;;;;;;;;;;;;;17.10;100.00;100157.38;5101027;28;20363;-71
2021/06/15 06:53:13;;;;;;;;;;;;;;;16.88;100.00;100153.66;5102113;28;20010;-71
2021/06/15 06:55:38;;;;;;;;;;;;;;;16.98;100.00;100156.13;5105333;28;19981;-72
2021/06/15 06:58:05;;;;;;;;;;;;;;;17.02;100.00;100153.97;5099497;28;19916;-72
2021/06/15 07:00:31;;;;;;;;;;;;;;;17.05;100.00;100151.78;5095703;28;19924;-71
2021/06/15 07:02:56;;;;;;;;;;;;;;;16.96;100.00;100152.81;5096113;28;19931;-71
2021/06/15 07:05:22;;;;;;;;;;;;;;;17.11;100.00;100155.56;5096138;28;20023;-71
2021/06/15 07:07:48;;;;;;;;;;;;;;;17.11;100.00;100148.47;5091002;28;19959;-71
2021/06/15 07:10:14;;;;;;;;;;;;;;;17.12;100.00;100147.47;5097684;28;19941;-72
2021/06/15 07:12:39;;;;;;;;;;;;;;;17.10;100.00;100141.50;5098382;28;20371;-72
2021/06/15 07:15:05;;;;;;;;;;;;;;;17.10;100.00;100151.28;5089846;28;19919;-72
2021/06/15 07:17:30;;;;;;;;;;;;;;;17.20;100.00;100150.06;5102179;28;19915;-72
2021/06/15 07:19:55;;;;;;;;;;;;;;;17.18;100.00;100146.78;5098169;28;20364;-71
2021/06/15 07:22:21;;;;;;;;;;;;;;;17.18;100.00;100148.63;5105355;28;20382;-71
2021/06/15 07:24:46;;;;;;;;;;;;;;;17.26;100.00;100153.03;5094565;28;19939;-71
2021/06/15 07:27:11;;;;;;;;;;;;;;;17.19;100.00;100144.97;5103768;28;19920;-71
2021/06/15 07:29:36;;;;;;;;;;;;;;;17.18;100.00;100144.13;5099297;28;19941;-71
2021/06/15 07:32:02;;;;;;;;;;;;;;;17.17;100.00;100139.00;5100082;28;20022;-71
2021/06/15 07:34:27;;;;;;;;;;;;;;;17.36;100.00;100151.00;5098729;28;20030;-72
2021/06/15 07:36:53;;;;;;;;;;;;;;;17.39;100.00;100135.59;5107740;28;20700;-71
2021/06/15 07:39:19;;;;;;;;;;;;;;;17.36;100.00;100140.41;5102679;28;19920;-71
2021/06/15 07:41:44;;;;;;;;;;;;;;;17.45;100.00;100132.25;5096006;28;20002;-72
2021/06/15 07:44:09;;;;;;;;;;;;;;;17.62;100.00;100137.47;5095877;28;19950;-71
2021/06/15 07:46:35;;;;;;;;;;;;;;;17.51;100.00;100132.56;5101006;28;20340;-72
2021/06/15 07:49:00;;;;;;;;;;;;;;;17.37;100.00;100128.81;5104119;28;19919;-72
2021/06/15 07:51:25;;;;;;;;;;;;;;;17.44;100.00;100132.41;5109793;28;19932;-72
2021/06/15 07:53:51;;;;;;;;;;;;;;;17.66;100.00;100123.69;5105743;28;19984;-71
2021/06/15 07:56:16;;;;;;;;;;;;;;;17.79;100.00;100122.34;5110328;28;20370;-72
2021/06/15 07:58:42;;;;;;;;;;;;;;;17.92;100.00;100117.25;5105512;28;20006;-72
2021/06/15 08:01:07;;;;;;;;;;;;;;;17.99;100.00;100118.22;5106171;28;20377;-71
2021/06/15 08:03:32;;;;;;;;;;;;;;;18.01;100.00;100121.50;5104112;28;19916;-73
2021/06/15 08:05:58;;;;;;;;;;;;;;;18.20;100.00;100116.72;5102646;28;19916;-72
2021/06/15 08:08:23;;;;;;;;;;;;;;;18.28;100.00;100116.66;5101220;28;19978;-72
2021/06/15 08:10:48;;;;;;;;;;;;;;;18.40;100.00;100113.38;5105346;28;19915;-71
2021/06/15 08:13:14;;;;;;;;;;;;;;;18.51;100.00;100109.47;5105306;28;19916;-72
2021/06/15 08:15:40;;;;;;;;;;;;;;;18.56;100.00;100112.41;5103062;28;19920;-73
2021/06/15 08:18:05;;;;;;;;;;;;;;;18.62;100.00;100118.81;5102282;28;19955;-72
2021/06/15 08:20:30;;;;;;;;;;;;;;;18.43;100.00;100106.91;5107066;28;19911;-71
2021/06/15 08:22:56;;;;;;;;;;;;;;;18.48;100.00;100115.13;5084410;28;20344;-71
2021/06/15 08:25:21;;;;;;;;;;;;;;;18.63;100.00;100108.03;5082358;28;20415;-72
2021/06/15 08:27:46;;;;;;;;;;;;;;;18.83;100.00;100112.81;5106553;28;19919;-73
2021/06/15 08:30:14;;;;;;;;;;;;;;;18.93;100.00;100112.53;5097466;28;19924;-73
2021/06/15 08:32:39;;;;;;;;;;;;;;;19.05;100.00;100117.19;5106611;28;20017;-72
2021/06/15 08:35:05;;;;;;;;;;;;;;;19.11;100.00;100120.97;5100716;28;20056;-73
2021/06/15 08:37:30;;;;;;;;;;;;;;;18.98;100.00;100110.97;5098264;28;19923;-73
2021/06/15 08:39:56;;;;;;;;;;;;;;;19.09;100.00;100117.66;5104429;28;19919;-72
2021/06/15 08:42:21;;;;;;;;;;;;;;;19.34;100.00;100112.88;5072781;28;19912;-71
2021/06/15 08:44:46;;;;;;;;;;;;;;;19.62;100.00;100114.81;5095740;28;19935;-72
2021/06/15 08:47:16;;;;;;;;;;;;;;;19.72;100.00;100110.88;5100585;28;20298;-72
2021/06/15 08:49:42;;;;;;;;;;;;;;;19.77;100.00;100107.63;5096902;28;19975;-71
2021/06/15 08:52:08;;;;;;;;;;;;;;;19.65;100.00;100109.16;5100448;28;19911;-72
2021/06/15 08:54:34;;;;;;;;;;;;;;;19.76;100.00;100103.34;5094958;28;19927;-72
2021/06/15 08:57:00;;;;;;;;;;;;;;;19.86;100.00;100103.03;5103443;28;19999;-71
2021/06/15 08:59:29;;;;;;;;;;;;;;;19.68;100.00;100098.97;5099367;28;20462;-73
2021/06/15 09:01:58;;;;;;;;;;;;;;;20.02;100.00;100102.78;5098118;28;19931;-73
2021/06/15 09:04:24;;;;;;;;;;;;;;;20.09;100.00;100097.50;5105131;28;19955;-71
2021/06/15 09:06:50;;;;;;;;;;;;;;;20.26;100.00;100098.88;5106524;28;19916;-72
2021/06/15 09:09:16;;;;;;;;;;;;;;;20.45;100.00;100097.38;5102310;28;19919;-70
2021/06/15 09:11:55;;;;;;;;;;;;;;;20.72;100.00;100095.72;5108346;28;20010;-72
2021/06/15 09:14:38;;;;;;;;;;;;;;;20.87;100.00;100099.09;5103805;28;19920;-71
2021/06/15 09:17:04;;;;;;;;;;;;;;;20.98;100.00;100103.06;5107278;28;20443;-72
2021/06/15 09:19:35;;;;;;;;;;;;;;;21.07;100.00;100101.06;5108228;28;19998;-72
2021/06/15 09:22:00;;;;;;;;;;;;;;;21.27;100.00;100101.97;5106293;28;19923;-72
2021/06/15 09:24:26;;;;;;;;;;;;;;;21.34;100.00;100094.00;5103338;28;19973;-72
2021/06/15 09:27:03;;;;;;;;;;;;;;;21.43;100.00;100096.31;5109838;28;19916;-73
2021/06/15 09:29:49;;;;;;;;;;;;;;;21.25;100.00;100098.66;5114162;28;19912;-73
2021/06/15 09:32:17;;;;;;;;;;;;;;;21.13;100.00;100095.75;5113025;28;20342;-75
2021/06/15 09:34:49;;;;;;;;;;;;;;;20.81;100.00;100089.22;5115707;28;19958;-76
2021/06/15 09:37:15;;;;;;;;;;;;;;;21.05;100.00;100093.25;5114938;28;20076;-75
2021/06/15 09:39:40;;;;;;;;;;;;;;;21.09;100.00;100094.50;5114027;28;19922;-75
2021/06/15 09:42:09;;;;;;;;;;;;;;;21.09;100.00;100091.00;5114303;28;19911;-72
2021/06/15 09:44:34;;;;;;;;;;;;;;;20.93;100.00;100087.66;5114751;28;19915;-73
2021/06/15 09:47:01;;;;;;;;;;;;;;;20.89;100.00;100086.44;5114036;28;19934;-73
2021/06/15 09:49:28;;;;;;;;;;;;;;;20.98;100.00;100085.22;5114116;28;20006;-73
2021/06/15 09:52:12;;;;;;;;;;;;;;;21.00;100.00;100085.03;5113984;28;19918;-73
2021/06/15 09:54:44;;;;;;;;;;;;;;;21.12;100.00;100079.94;5114251;28;19998;-73
2021/06/15 09:57:12;;;;;;;;;;;;;;;21.06;100.00;100088.72;5111648;28;19943;-73
2021/06/15 09:59:56;;;;;;;;;;;;;;;21.23;100.00;100084.72;5113307;28;19919;-72
2021/06/15 10:02:21;;;;;;;;;;;;;;;21.28;100.00;100087.59;5113878;28;19912;-73
2021/06/15 10:04:48;;;;;;;;;;;;;;;21.42;100.00;100083.16;5113687;28;19933;-73
2021/06/15 10:07:23;;;;;;;;;;;;;;;21.57;100.00;100086.50;5113572;28;20329;-73
2021/06/15 10:09:48;;;;;;;;;;;;;;;21.65;100.00;100082.81;5113856;28;19912;-73
2021/06/15 10:12:14;;;;;;;;;;;;;;;21.34;100.00;100086.00;5113636;28;19922;-73
2021/06/15 10:14:39;;;;;;;;;;;;;;;21.37;100.00;100083.78;5113713;28;19942;-72
2021/06/15 10:17:05;;;;;;;;;;;;;;;21.48;100.00;100079.69;5113507;28;19919;-73
2021/06/15 10:19:30;;;;;;;;;;;;;;;21.55;100.00;100071.72;5113617;28;19912;-73
2021/06/15 10:21:57;;;;;;;;;;;;;;;21.54;100.00;100064.75;5113667;28;20389;-72
2021/06/15 10:24:24;;;;;;;;;;;;;;;21.68;100.00;100069.91;5113449;28;19911;-73
2021/06/15 10:26:49;;;;;;;;;;;;;;;21.70;100.00;100075.03;5113290;28;19968;-72
2021/06/15 10:29:16;;;;;;;;;;;;;;;21.68;100.00;100074.41;5113506;28;19912;-72
2021/06/15 10:31:42;;;;;;;;;;;;;;;21.60;100.00;100070.09;5113429;28;20061;-72
2021/06/15 10:34:08;;;;;;;;;;;;;;;21.69;100.00;100065.38;5113359;28;19912;-73
2021/06/15 10:36:38;;;;;;;;;;;;;;;21.82;100.00;100057.41;5113324;28;19918;-72
2021/06/15 10:39:04;;;;;;;;;;;;;;;21.74;100.00;100062.13;5113324;28;19963;-72
2021/06/15 10:41:29;;;;;;;;;;;;;;;21.63;100.00;100060.84;5113323;28;19912;-72
2021/06/15 10:43:56;;;;;;;;;;;;;;;21.72;100.00;100046.31;5095382;28;19961;-72
2021/06/15 10:46:21;;;;;;;;;;;;;;;21.82;100.00;100044.06;5095365;28;19918;-72
2021/06/15 10:48:54;;;;;;;;;;;;;;;21.92;100.00;100047.13;5113251;28;20374;-72
2021/06/15 10:51:19;;;;;;;;;;;;;;;21.90;100.00;100032.34;5116210;28;19990;-72
2021/06/15 10:53:44;;;;;;;;;;;;;;;22.01;100.00;100037.09;5119938;28;19911;-72
2021/06/15 10:56:11;;;;;;;;;;;;;;;22.22;100.00;100030.75;5119897;28;20010;-73
2021/06/15 10:58:36;;;;;;;;;;;;;;;22.19;100.00;100023.16;5119758;28;19998;-73
2021/06/15 11:01:21;;;;;;;;;;;;;;;22.27;100.00;100012.25;5119441;28;20394;-72
2021/06/15 11:03:47;;;;;;;;;;;;;;;22.22;100.00;100016.59;5120072;28;20392;-72
2021/06/15 11:06:13;;;;;;;;;;;;;;;22.26;100.00;100009.78;5119330;28;19916;-72
2021/06/15 11:08:38;;;;;;;;;;;;;;;22.33;100.00;100010.59;5120152;28;19912;-73
2021/06/15 11:11:05;;;;;;;;;;;;;;;22.41;100.00;100007.72;5119692;28;20294;-72
2021/06/15 11:13:57;;;;;;;;;;;;;;;22.51;100.00;100010.78;5119858;28;19912;-73
2021/06/15 11:16:31;;;;;;;;;;;;;;;22.48;100.00;100008.53;5114720;28;19919;-73
2021/06/15 11:19:09;;;;;;;;;;;;;;;22.56;100.00;100007.47;5119765;28;19918;-72
2021/06/15 11:21:43;;;;;;;;;;;;;;;22.70;100.00;100001.03;5101203;28;20310;-74
2021/06/15 11:24:22;;;;;;;;;;;;;;;22.67;100.00;100001.47;5119773;28;19918;-72
2021/06/15 11:26:52;;;;;;;;;;;;;;;22.89;100.00;99987.84;5119790;28;19912;-73
2021/06/15 11:29:33;;;;;;;;;;;;;;;22.87;100.00;100001.38;5119705;28;20024;-72
2021/06/15 11:32:17;;;;;;;;;;;;;;;23.07;100.00;99991.44;5119956;28;19914;-72
2021/06/15 11:35:03;;;;;;;;;;;;;;;23.06;100.00;99992.50;5119879;28;19918;-72
2021/06/15 11:37:37;;;;;;;;;;;;;;;22.99;87.01;99988.22;5119448;28;19912;-72
2021/06/15 11:40:09;;;;;;;;;;;;;;;23.09;86.11;99983.22;5119180;28;19924;-72
2021/06/15 11:42:34;;;;;;;;;;;;;;;23.04;87.02;99980.38;5119939;28;19915;-73
2021/06/15 11:44:59;;;;;;;;;;;;;;;23.06;85.95;99981.00;5119463;28;20290;-73
2021/06/15 11:47:26;;;;;;;;;;;;;;;23.02;85.50;99974.44;5118463;28;19911;-73
2021/06/15 11:50:10;;;;;;;;;;;;;;;22.97;82.08;99975.06;5118349;28;20006;-72
2021/06/15 11:52:36;;;;;;;;;;;;;;;22.95;87.94;99971.81;5118575;28;19980;-73
2021/06/15 11:55:03;;;;;;;;;;;;;;;22.87;82.12;99970.13;5118034;28;19958;-72
2021/06/15 11:57:28;;;;;;;;;;;;;;;22.75;79.99;99963.84;5118408;28;19934;-73
2021/06/15 11:59:53;;;;;;;;;;;;;;;22.83;86.47;99963.59;5118406;28;20425;-73
2021/06/15 12:02:19;;;;;;;;;;;;;;;22.83;87.41;99968.13;5117553;28;20405;-73
2021/06/15 12:05:03;;;;;;;;;;;;;;;22.68;85.51;99965.72;5115718;28;19951;-73
2021/06/15 12:07:28;;;;;;;;;;;;;;;22.77;85.63;99963.63;5116014;28;19912;-73
2021/06/15 12:10:03;;;;;;;;;;;;;;;22.77;84.49;99961.75;5116045;28;19916;-72
2021/06/15 12:12:28;;;;;;;;;;;;;;;22.67;79.09;99953.38;5116028;28;19912;-73
2021/06/15 12:14:53;;;;;;;;;;;;;;;22.57;79.59;99948.50;5115960;28;20386;-73
2021/06/15 12:17:18;;;;;;;;;;;;;;;22.59;81.20;99951.78;5115869;28;20310;-73
2021/06/15 12:19:44;;;;;;;;;;;;;;;22.54;78.88;99956.94;5115911;28;20294;-72
2021/06/15 12:22:15;;;;;;;;;;;;;;;22.73;82.35;99957.88;5115753;28;19912;-73
2021/06/15 12:24:45;;;;;;;;;;;;;;;22.79;81.73;99949.03;5115743;28;19911;-73
2021/06/15 12:27:20;;;;;;;;;;;;;;;22.77;79.53;99955.59;5115494;28;19985;-73
2021/06/15 12:29:45;;;;;;;;;;;;;;;22.76;83.95;99953.97;5115575;28;20362;-72
2021/06/15 12:32:11;;;;;;;;;;;;;;;22.65;81.46;99955.47;5115714;28;19919;-72